createdAt,value
2019-05-21T00:02:16.778Z,98999.55
2019-05-21T00:04:44.668Z,98994.20
2019-05-21T00:07:12.024Z,98991.70
2019-05-21T00:09:39.475Z,98989.69
2019-05-21T00:12:06.785Z,98987.70
2019-05-21T00:14:34.033Z,98988.28
2019-05-21T00:17:01.364Z,98982.72
2019-05-21T00:19:28.690Z,98979.97
2019-05-21T00:21:55.919Z,98979.15
2019-05-21T00:24:23.193Z,98975.34
2019-05-21T00:26:50.626Z,98975.59
2019-05-21T00:29:54.451Z,98972.30
2019-05-21T00:32:57.777Z,98962.73
2019-05-21T00:36:02.414Z,98974.84
2019-05-21T00:39:05.834Z,98971.78
2019-05-21T00:42:02.091Z,98980.95
2019-05-21T00:44:34.577Z,98981.08
2019-05-21T00:47:01.974Z,98972.23
2019-05-21T00:49:29.261Z,98972.92
2019-05-21T00:52:07.046Z,98979.37
2019-05-21T00:54:25.722Z,98993.06
2019-05-21T00:56:52.952Z,98986.95
2019-05-21T00:59:20.210Z,98990.31
2019-05-21T01:01:47.466Z,99002.12
2019-05-21T01:04:14.725Z,99003.25
2019-05-21T01:06:41.984Z,99004.41
2019-05-21T01:09:09.251Z,99011.86
2019-05-21T01:11:36.613Z,99019.30
2019-05-21T01:14:04.092Z,99010.66
2019-05-21T01:16:31.387Z,99024.66
2019-05-21T01:18:58.677Z,99016.49
2019-05-21T01:21:25.934Z,99016.05
2019-05-21T01:23:53.172Z,99015.44
2019-05-21T01:26:20.493Z,99020.58
2019-05-21T01:28:47.774Z,99028.98
2019-05-21T01:31:15.050Z,98992.69
2019-05-21T01:33:42.290Z,99023.70
2019-05-21T01:36:09.721Z,99028.98
2019-05-21T01:38:38.026Z,99032.17
2019-05-21T01:41:05.262Z,99043.91
2019-05-21T01:43:32.613Z,99040.41
2019-05-21T01:45:59.906Z,99038.72
2019-05-21T01:48:27.187Z,99032.55
2019-05-21T01:50:54.506Z,99029.66
2019-05-21T01:53:21.751Z,99030.14
2019-05-21T01:55:49.000Z,99034.88
2019-05-21T01:58:17.296Z,99033.46
2019-05-21T02:00:44.535Z,99031.02
2019-05-21T02:03:12.821Z,99038.38
2019-05-21T02:05:40.079Z,99041.92
2019-05-21T02:08:07.289Z,99034.86
2019-05-21T02:10:34.557Z,99033.39
2019-05-21T02:13:01.792Z,99031.53
2019-05-21T02:15:29.209Z,99033.52
2019-05-21T02:17:56.567Z,99041.41
2019-05-21T02:20:23.812Z,99039.62
2019-05-21T02:22:51.031Z,99034.73
2019-05-21T02:25:18.306Z,99040.72
2019-05-21T02:27:45.722Z,99033.08
2019-05-21T02:30:13.187Z,99034.71
2019-05-21T02:32:40.566Z,99036.41
2019-05-21T02:35:07.902Z,99043.17
2019-05-21T02:37:35.173Z,99049.42
2019-05-21T02:40:02.589Z,99052.84
2019-05-21T02:42:29.956Z,99063.23
2019-05-21T02:44:57.211Z,99054.56
2019-05-21T02:47:24.437Z,99056.11
2019-05-21T02:49:51.703Z,99061.53
2019-05-21T02:52:18.932Z,99059.09
2019-05-21T02:54:46.235Z,99055.91
2019-05-21T02:57:13.532Z,99050.24
2019-05-21T02:59:42.263Z,99054.11
2019-05-21T03:02:16.457Z,99049.27
2019-05-21T03:04:43.948Z,99045.26
2019-05-21T03:07:16.941Z,99044.49
2019-05-21T03:09:44.733Z,99049.02
2019-05-21T03:12:12.088Z,99058.92
2019-05-21T03:14:39.758Z,99063.80
2019-05-21T03:17:07.015Z,99068.63
2019-05-21T03:19:34.427Z,99067.60
2019-05-21T03:22:01.676Z,99075.09
2019-05-21T03:24:28.927Z,99078.22
2019-05-21T03:26:56.161Z,99071.74
2019-05-21T03:29:23.455Z,99073.16
2019-05-21T03:31:50.708Z,99067.09
2019-05-21T03:34:18.000Z,99078.61
2019-05-21T03:36:45.235Z,99087.25
2019-05-21T03:39:12.470Z,99092.38
2019-05-21T03:41:39.767Z,99098.22
2019-05-21T03:44:06.986Z,99099.64
2019-05-21T03:46:34.345Z,99100.52
2019-05-21T03:49:01.573Z,99101.59
2019-05-21T03:51:28.839Z,99107.13
2019-05-21T03:53:56.061Z,99104.14
2019-05-21T03:56:23.345Z,99098.64
2019-05-21T03:58:50.560Z,99101.66
2019-05-21T04:01:17.802Z,99099.63
2019-05-21T04:03:45.012Z,99103.52
2019-05-21T04:06:12.222Z,99106.78
2019-05-21T04:08:39.468Z,99115.19
2019-05-21T04:11:06.700Z,99116.87
2019-05-21T04:13:33.956Z,99109.97
2019-05-21T04:16:19.183Z,99111.92
2019-05-21T04:18:56.037Z,99117.16
2019-05-21T04:21:23.287Z,99122.47
2019-05-21T04:23:50.519Z,99113.97
2019-05-21T04:26:17.791Z,99117.70
2019-05-21T04:28:45.075Z,99118.30
2019-05-21T04:31:12.324Z,99114.36
2019-05-21T04:33:39.610Z,99114.72
2019-05-21T04:36:07.049Z,99114.12
2019-05-21T04:38:34.276Z,99126.16
2019-05-21T04:41:01.530Z,99123.84
2019-05-21T04:43:28.779Z,99124.63
2019-05-21T04:45:56.072Z,99123.23
2019-05-21T04:48:23.385Z,99129.02
2019-05-21T04:50:50.674Z,99129.52
2019-05-21T04:53:17.923Z,99128.39
2019-05-21T04:55:45.166Z,99122.61
2019-05-21T04:58:14.168Z,99131.20
2019-05-21T05:00:42.912Z,99133.56
2019-05-21T05:03:10.954Z,99134.59
2019-05-21T05:05:38.501Z,99136.07
2019-05-21T05:08:06.330Z,99138.43
2019-05-21T05:10:34.756Z,99136.98
2019-05-21T05:13:01.988Z,99143.23
2019-05-21T05:15:29.229Z,99140.72
2019-05-21T05:17:56.471Z,99150.16
2019-05-21T05:20:23.755Z,99149.30
2019-05-21T05:22:51.090Z,99146.95
2019-05-21T05:25:18.363Z,99138.78
2019-05-21T05:27:45.634Z,99137.08
2019-05-21T05:30:12.974Z,99132.72
2019-05-21T05:32:40.300Z,99139.91
2019-05-21T05:35:07.676Z,99143.09
2019-05-21T05:37:43.531Z,99145.54
2019-05-21T05:40:05.255Z,99154.34
2019-05-21T05:42:32.497Z,99150.42
2019-05-21T05:44:59.753Z,99164.22
2019-05-21T05:47:27.076Z,99161.94
2019-05-21T05:49:56.229Z,99160.56
2019-05-21T05:52:23.518Z,99168.62
2019-05-21T05:54:50.893Z,99169.87
2019-05-21T05:57:18.209Z,99169.16
2019-05-21T05:59:45.431Z,99170.73
2019-05-21T06:02:12.983Z,99184.27
2019-05-21T06:04:40.287Z,99182.41
2019-05-21T06:07:07.642Z,99183.16
2019-05-21T06:09:34.895Z,99175.14
2019-05-21T06:12:02.352Z,99184.02
2019-05-21T06:14:29.858Z,99179.55
2019-05-21T06:16:57.165Z,99189.02
2019-05-21T06:19:24.671Z,99182.89
2019-05-21T06:21:51.905Z,99183.63
2019-05-21T06:24:19.349Z,99172.94
2019-05-21T06:26:46.637Z,99178.33
2019-05-21T06:29:13.936Z,99181.76
2019-05-21T06:31:41.190Z,99179.48
2019-05-21T06:34:08.446Z,99185.14
2019-05-21T06:36:35.796Z,99189.90
2019-05-21T06:39:05.741Z,99188.44
2019-05-21T06:41:33.149Z,99195.20
2019-05-21T06:44:01.892Z,99195.33
2019-05-21T06:46:29.224Z,99199.30
2019-05-21T06:48:56.661Z,99204.88
2019-05-21T06:51:23.922Z,99211.20
2019-05-21T06:53:51.217Z,99211.05
2019-05-21T06:56:18.556Z,99220.78
2019-05-21T06:58:45.922Z,99218.53
2019-05-21T07:01:13.344Z,99230.06
2019-05-21T07:03:40.918Z,99225.53
2019-05-21T07:06:08.233Z,99225.66
2019-05-21T07:08:35.646Z,99226.44
2019-05-21T07:11:02.896Z,99231.13
2019-05-21T07:13:31.076Z,99233.25
2019-05-21T07:15:59.937Z,99243.16
2019-05-21T07:18:27.331Z,99240.79
2019-05-21T07:20:54.536Z,99249.72
2019-05-21T07:23:21.818Z,99247.99
2019-05-21T07:25:49.132Z,99248.54
2019-05-21T07:28:16.425Z,99246.66
2019-05-21T07:30:43.746Z,99245.16
2019-05-21T07:33:11.246Z,99253.74
2019-05-21T07:35:39.717Z,99265.19
2019-05-21T07:38:07.072Z,99261.05
2019-05-21T07:40:39.874Z,99267.08
2019-05-21T07:43:07.387Z,99270.74
2019-05-21T07:45:38.339Z,99278.45
2019-05-21T07:48:05.913Z,99267.51
2019-05-21T07:50:33.480Z,99276.98
2019-05-21T07:53:00.840Z,99268.92
2019-05-21T07:55:28.208Z,99274.36
2019-05-21T07:57:55.472Z,99275.11
2019-05-21T08:00:23.018Z,99271.67
2019-05-21T08:02:50.697Z,99275.09
2019-05-21T08:05:17.979Z,99265.50
2019-05-21T08:07:45.343Z,99271.09
2019-05-21T08:10:13.103Z,99283.59
2019-05-21T08:12:40.385Z,99290.33
2019-05-21T08:15:07.814Z,99293.13
2019-05-21T08:17:35.176Z,99295.37
2019-05-21T08:20:09.189Z,99302.22
2019-05-21T08:22:31.861Z,99299.70
2019-05-21T08:24:59.174Z,99301.90
2019-05-21T08:27:26.418Z,99297.05
2019-05-21T08:29:53.685Z,99304.14
2019-05-21T08:32:20.970Z,99311.19
2019-05-21T08:34:48.360Z,99315.44
2019-05-21T08:37:15.648Z,99315.13
2019-05-21T08:39:42.883Z,99313.31
2019-05-21T08:42:10.211Z,99317.45
2019-05-21T08:44:37.483Z,99319.02
2019-05-21T08:47:04.749Z,99323.11
2019-05-21T08:49:32.027Z,99310.72
2019-05-21T08:51:59.345Z,99310.05
2019-05-21T08:54:44.783Z,99312.19
2019-05-21T08:57:12.092Z,99296.30
2019-05-21T08:59:39.333Z,99304.92
2019-05-21T09:02:06.645Z,99316.56
2019-05-21T09:04:45.969Z,99320.06
2019-05-21T09:07:03.053Z,99325.19
2019-05-21T09:09:48.494Z,99335.58
2019-05-21T09:11:59.537Z,99331.81
2019-05-21T09:14:26.867Z,99332.35
2019-05-21T09:16:55.276Z,99341.23
2019-05-21T09:19:22.511Z,99348.33
2019-05-21T09:21:49.763Z,99353.45
2019-05-21T09:24:17.051Z,99358.48
2019-05-21T09:26:44.409Z,99369.41
2019-05-21T09:29:11.717Z,99373.59
2019-05-21T09:31:38.960Z,99375.44
2019-05-21T09:34:08.993Z,99381.00
2019-05-21T09:36:36.250Z,99390.78
2019-05-21T09:39:04.478Z,99394.56
2019-05-21T09:41:33.456Z,99393.23
2019-05-21T09:44:00.741Z,99393.03
2019-05-21T09:46:27.995Z,99392.47
2019-05-21T09:48:56.210Z,99396.63
2019-05-21T09:51:23.517Z,99388.72
2019-05-21T09:53:50.879Z,99390.11
2019-05-21T09:56:33.223Z,99391.45
2019-05-21T09:59:06.955Z,99390.99
2019-05-21T10:01:47.474Z,99395.38
2019-05-21T10:04:11.951Z,99389.48
2019-05-21T10:06:39.246Z,99391.02
2019-05-21T10:09:09.121Z,99390.45
2019-05-21T10:11:36.550Z,99399.73
2019-05-21T10:14:04.127Z,99408.50
2019-05-21T10:16:31.434Z,99412.31
2019-05-21T10:18:58.651Z,99410.68
2019-05-21T10:21:26.059Z,99413.27
2019-05-21T10:23:53.350Z,99425.49
2019-05-21T10:26:20.731Z,99413.97
2019-05-21T10:28:48.010Z,99412.03
2019-05-21T10:31:15.348Z,99408.73
2019-05-21T10:33:43.725Z,99404.26
2019-05-21T10:36:11.226Z,99414.65
2019-05-21T10:38:39.700Z,99412.09
2019-05-21T10:41:07.235Z,99414.79
2019-05-21T10:43:34.701Z,99421.48
2019-05-21T10:46:02.365Z,99421.63
2019-05-21T10:48:29.721Z,99432.67
2019-05-21T10:50:57.026Z,99427.08
2019-05-21T10:53:24.417Z,99428.70
2019-05-21T10:55:51.784Z,99429.33
2019-05-21T10:58:20.332Z,99437.39
2019-05-21T11:00:50.497Z,99439.64
2019-05-21T11:03:21.698Z,99450.55
2019-05-21T11:06:07.215Z,99451.88
2019-05-21T11:08:23.935Z,99452.08
2019-05-21T11:10:51.546Z,99458.92
2019-05-21T11:13:18.884Z,99464.38
2019-05-21T11:15:46.286Z,99463.27
2019-05-21T11:18:13.584Z,99468.84
2019-05-21T11:20:45.148Z,99470.79
2019-05-21T11:23:12.639Z,99472.03
2019-05-21T11:25:39.871Z,99472.73
2019-05-21T11:28:07.267Z,99477.38
2019-05-21T11:30:35.600Z,99485.41
2019-05-21T11:33:03.031Z,99486.05
2019-05-21T11:35:31.263Z,99489.13
2019-05-21T11:37:58.504Z,99490.47
2019-05-21T11:40:25.968Z,99501.45
2019-05-21T11:42:54.478Z,99490.25
2019-05-21T11:45:31.563Z,99491.58
2019-05-21T11:47:54.462Z,99503.22
2019-05-21T11:50:20.988Z,99499.72
2019-05-21T11:52:48.346Z,99502.30
2019-05-21T11:55:15.657Z,99475.17
2019-05-21T11:57:42.962Z,99510.12
2019-05-21T12:00:11.107Z,99509.48
2019-05-21T12:02:38.677Z,99512.57
2019-05-21T12:05:06.123Z,99517.51
2019-05-21T12:07:33.518Z,99519.06
2019-05-21T12:10:00.889Z,99529.20
2019-05-21T12:12:28.231Z,99530.86
2019-05-21T12:14:55.506Z,99532.91
2019-05-21T12:17:22.768Z,99538.26
2019-05-21T12:19:50.066Z,99541.34
2019-05-21T12:22:17.364Z,99544.11
2019-05-21T12:24:44.673Z,99544.02
2019-05-21T12:27:11.934Z,99544.94
2019-05-21T12:29:39.162Z,99544.00
2019-05-21T12:32:06.447Z,99553.36
2019-05-21T12:34:33.734Z,99551.83
2019-05-21T12:37:00.983Z,99550.17
2019-05-21T12:39:28.417Z,99554.61
2019-05-21T12:41:55.680Z,99554.49
2019-05-21T12:44:23.082Z,99553.98
2019-05-21T12:46:50.380Z,99557.58
2019-05-21T12:49:17.703Z,99561.69
2019-05-21T12:51:44.962Z,99564.37
2019-05-21T12:54:12.260Z,99563.97
2019-05-21T12:56:40.962Z,99563.84
2019-05-21T12:59:08.572Z,99568.59
2019-05-21T13:01:35.896Z,99566.01
2019-05-21T13:04:03.165Z,99565.92
2019-05-21T13:06:30.546Z,99568.69
2019-05-21T13:08:57.815Z,99568.38
2019-05-21T13:11:25.157Z,99568.70
2019-05-21T13:13:52.492Z,99579.19
2019-05-21T13:16:19.756Z,99578.03
2019-05-21T13:18:47.066Z,99587.69
2019-05-21T13:21:14.304Z,99589.11
2019-05-21T13:23:41.724Z,99586.55
2019-05-21T13:26:09.932Z,99593.52
2019-05-21T13:28:37.444Z,99592.33
2019-05-21T13:31:04.770Z,99596.13
2019-05-21T13:33:32.006Z,99601.06
2019-05-21T13:35:59.414Z,99597.77
2019-05-21T13:38:26.758Z,99604.44
2019-05-21T13:40:54.210Z,99602.29
2019-05-21T13:43:21.655Z,99599.53
2019-05-21T13:45:49.155Z,99602.91
2019-05-21T13:48:17.469Z,99604.36
2019-05-21T13:50:44.849Z,99600.03
2019-05-21T13:53:12.152Z,99612.77
2019-05-21T13:55:39.444Z,99608.56
2019-05-21T13:58:06.709Z,99612.17
2019-05-21T14:00:41.168Z,99617.63
2019-05-21T14:03:08.491Z,99615.56
2019-05-21T14:05:38.891Z,99618.13
2019-05-21T14:08:06.206Z,99615.88
2019-05-21T14:10:33.681Z,99612.69
2019-05-21T14:13:01.241Z,99618.03
2019-05-21T14:15:29.509Z,99612.30
2019-05-21T14:17:56.811Z,99623.19
2019-05-21T14:20:24.262Z,99628.64
2019-05-21T14:22:51.560Z,99597.97
2019-05-21T14:25:18.830Z,99622.27
2019-05-21T14:27:46.202Z,99625.81
2019-05-21T14:30:13.606Z,99622.96
2019-05-21T14:32:40.976Z,99623.64
2019-05-21T14:35:08.297Z,99627.05
2019-05-21T14:37:35.618Z,99635.68
2019-05-21T14:40:03.077Z,99633.78
2019-05-21T14:42:30.340Z,99641.12
2019-05-21T14:44:57.615Z,99631.39
2019-05-21T14:47:24.853Z,99639.84
2019-05-21T14:49:52.129Z,99635.64
2019-05-21T14:52:19.481Z,99644.59
2019-05-21T14:54:46.739Z,99648.84
2019-05-21T14:57:14.006Z,99638.83
2019-05-21T14:59:41.246Z,99637.81
2019-05-21T15:02:08.527Z,99646.54
2019-05-21T15:04:37.025Z,99635.97
2019-05-21T15:07:04.545Z,99642.97
2019-05-21T15:09:31.761Z,99636.16
2019-05-21T15:11:59.049Z,99638.19
2019-05-21T15:14:26.465Z,99644.91
2019-05-21T15:16:53.847Z,99641.92
2019-05-21T15:19:21.069Z,99645.01
2019-05-21T15:21:51.634Z,99642.02
2019-05-21T15:24:19.893Z,99641.78
2019-05-21T15:26:47.187Z,99647.64
2019-05-21T15:29:14.436Z,99646.39
2019-05-21T15:31:41.714Z,99647.03
2019-05-21T15:34:09.307Z,99645.96
2019-05-21T15:36:36.659Z,99644.80
2019-05-21T15:39:05.778Z,99647.95
2019-05-21T15:41:33.033Z,99651.20
2019-05-21T15:44:00.587Z,99658.23
2019-05-21T15:46:27.837Z,99659.22
2019-05-21T15:48:55.106Z,99655.22
2019-05-21T15:51:22.423Z,99654.42
2019-05-21T15:53:49.675Z,99657.70
2019-05-21T15:56:16.923Z,99661.58
2019-05-21T15:58:44.203Z,99659.19
2019-05-21T16:01:11.565Z,99654.72
2019-05-21T16:03:38.833Z,99661.05
2019-05-21T16:06:06.148Z,99659.33
2019-05-21T16:08:33.411Z,99660.74
2019-05-21T16:11:00.633Z,99662.00
2019-05-21T16:13:27.917Z,99662.58
2019-05-21T16:15:55.268Z,99656.58
2019-05-21T16:18:22.760Z,99656.97
2019-05-21T16:20:50.036Z,99650.05
2019-05-21T16:23:17.401Z,99648.90
2019-05-21T16:25:44.780Z,99646.29
2019-05-21T16:28:12.113Z,99646.93
2019-05-21T16:30:39.390Z,99649.91
2019-05-21T16:33:06.421Z,99655.59
2019-05-21T16:35:33.975Z,99653.58
2019-05-21T16:38:01.386Z,99650.86
2019-05-21T16:40:29.013Z,99649.48
2019-05-21T16:42:56.467Z,99653.86
2019-05-21T16:45:23.993Z,99653.19
2019-05-21T16:47:51.233Z,99645.38
2019-05-21T16:50:18.629Z,99656.91
2019-05-21T16:52:45.982Z,99654.88
2019-05-21T16:57:32.450Z,99657.05
2019-05-21T16:59:59.893Z,99660.45
2019-05-21T17:02:27.198Z,99663.91
2019-05-21T17:04:54.771Z,99666.08
2019-05-21T17:07:22.222Z,99666.20
2019-05-21T17:09:49.935Z,99661.44
2019-05-21T17:12:18.687Z,99664.43
2019-05-21T17:14:46.186Z,99663.05
2019-05-21T17:17:14.487Z,99672.55
2019-05-21T17:19:41.746Z,99667.65
2019-05-21T17:22:09.034Z,99670.45
2019-05-21T17:24:37.493Z,99673.06
2019-05-21T17:27:06.000Z,99670.14
2019-05-21T17:31:49.433Z,99673.15
2019-05-21T17:34:16.776Z,99667.56
2019-05-21T17:36:44.184Z,99673.19
2019-05-21T17:39:18.472Z,99682.78
2019-05-21T17:41:46.024Z,99674.91
2019-05-21T17:44:13.407Z,99678.36
2019-05-21T17:46:40.958Z,99679.20
2019-05-21T17:49:08.308Z,99680.77
2019-05-21T17:51:35.681Z,99684.47
2019-05-21T17:56:25.642Z,99683.40
2019-05-21T17:58:53.222Z,99684.65
2019-05-21T18:01:22.639Z,99692.91
2019-05-21T18:03:51.998Z,99697.36
2019-05-21T18:06:21.972Z,99700.95
2019-05-21T18:08:49.986Z,99701.45
2019-05-21T18:11:17.619Z,99702.10
2019-05-21T18:13:49.162Z,99707.14
2019-05-21T18:16:16.928Z,99711.60
2019-05-21T18:18:45.604Z,99717.24
2019-05-21T18:21:12.853Z,99719.19
2019-05-21T18:23:40.800Z,99720.34
2019-05-21T18:26:08.203Z,99718.27
2019-05-21T18:30:52.336Z,99729.99
2019-05-21T18:35:46.575Z,99740.19
2019-05-21T18:38:13.959Z,99741.55
2019-05-21T18:40:41.526Z,99742.80
2019-05-21T18:43:08.910Z,99742.89
2019-05-21T18:45:36.583Z,99752.17
2019-05-21T18:48:04.021Z,99755.35
2019-05-21T18:50:36.301Z,99763.38
2019-05-21T18:53:00.755Z,99761.92
2019-05-21T18:55:28.311Z,99770.29
2019-05-21T18:57:55.741Z,99774.48
2019-05-21T19:00:23.235Z,99775.84
2019-05-21T19:02:50.738Z,99776.53
2019-05-21T19:05:18.707Z,99780.46
2019-05-21T19:07:46.307Z,99784.83
2019-05-21T19:10:13.895Z,99797.11
2019-05-21T19:12:41.376Z,99791.11
2019-05-21T19:15:08.800Z,99799.62
2019-05-21T19:17:36.374Z,99800.05
2019-05-21T19:20:04.273Z,99795.63
2019-05-21T19:22:32.573Z,99801.38
2019-05-21T19:24:59.956Z,99796.33
2019-05-21T19:27:27.478Z,99808.55
2019-05-21T19:29:54.745Z,99815.59
2019-05-21T19:32:22.045Z,99811.05
2019-05-21T19:34:49.344Z,99812.27
2019-05-21T19:37:16.700Z,99821.64
2019-05-21T19:39:44.086Z,99827.17
2019-05-21T19:42:11.407Z,99827.38
2019-05-21T19:44:38.770Z,99832.63
2019-05-21T19:47:06.145Z,99832.73
2019-05-21T19:49:33.418Z,99832.30
2019-05-21T19:52:00.771Z,99831.15
2019-05-21T19:54:28.043Z,99837.22
2019-05-21T19:56:55.265Z,99843.41
2019-05-21T19:59:22.626Z,99845.35
2019-05-21T20:01:50.386Z,99852.03
2019-05-21T20:04:18.533Z,99848.75
2019-05-21T20:06:46.088Z,99856.95
2019-05-21T20:09:15.821Z,99849.62
2019-05-21T20:11:43.454Z,99860.09
2019-05-21T20:14:11.707Z,99862.70
2019-05-21T20:16:39.317Z,99867.44
2019-05-21T20:19:06.947Z,99867.58
2019-05-21T20:21:35.265Z,99870.03
2019-05-21T20:24:03.221Z,99865.38
2019-05-21T20:26:32.583Z,99868.34
2019-05-21T20:29:00.890Z,99861.36
2019-05-21T20:31:29.017Z,99868.80
2019-05-21T20:33:57.293Z,99872.19
2019-05-21T20:36:24.768Z,99873.23
2019-05-21T20:38:52.041Z,99868.57
2019-05-21T20:41:19.279Z,99873.37
2019-05-21T20:43:58.722Z,99876.04
2019-05-21T20:46:16.498Z,99876.04
2019-05-21T20:48:44.195Z,99877.16
2019-05-21T20:51:12.709Z,99877.88
2019-05-21T20:53:40.340Z,99871.42
2019-05-21T20:56:07.878Z,99874.86
2019-05-21T20:58:35.434Z,99871.25
2019-05-21T21:01:05.038Z,99878.34
2019-05-21T21:03:33.077Z,99868.70
2019-05-21T21:08:32.089Z,99872.84
2019-05-21T21:10:59.671Z,99879.05
2019-05-21T21:13:28.076Z,99801.42
2019-05-21T21:15:55.450Z,99884.95
2019-05-21T21:18:24.455Z,99884.52
2019-05-21T21:20:51.916Z,99881.11
2019-05-21T21:23:21.556Z,99886.23
2019-05-21T21:25:48.855Z,99891.41
2019-05-21T21:28:16.963Z,99888.30
2019-05-21T21:30:44.185Z,99890.73
2019-05-21T21:33:12.979Z,99895.19
2019-05-21T21:35:41.327Z,99896.20
2019-05-21T21:38:10.580Z,99891.70
2019-05-21T21:40:37.917Z,99895.71
2019-05-21T21:43:07.890Z,99901.38
2019-05-21T21:45:34.688Z,99902.60
2019-05-21T21:48:02.013Z,99899.45
2019-05-21T21:50:29.471Z,99898.77
2019-05-21T21:52:56.735Z,99898.44
2019-05-21T21:55:23.953Z,99897.42
2019-05-21T21:57:52.225Z,99897.88
2019-05-21T22:01:42.546Z,99898.86
2019-05-21T22:06:37.124Z,99896.59
2019-05-21T22:09:06.350Z,99901.44
2019-05-21T22:11:34.129Z,99898.82
2019-05-21T22:14:03.502Z,99900.92
2019-05-21T22:16:30.882Z,99901.33
2019-05-21T22:18:58.148Z,99898.88
2019-05-21T22:21:26.085Z,99896.59
2019-05-21T22:23:53.381Z,99905.45
2019-05-21T22:26:21.039Z,99903.16
2019-05-21T22:28:48.352Z,99901.31
2019-05-21T22:31:15.619Z,99901.31
2019-05-21T22:33:43.084Z,99904.44
2019-05-21T22:36:10.811Z,99910.22
2019-05-21T22:41:02.007Z,99904.77
2019-05-21T22:43:29.775Z,99899.25
2019-05-21T22:45:57.060Z,99905.75
2019-05-21T22:48:24.313Z,99899.70
2019-05-21T22:50:51.597Z,99902.60
2019-05-21T22:53:18.833Z,99904.55
2019-05-21T22:55:46.111Z,99900.75
2019-05-21T22:58:15.519Z,99908.44
2019-05-21T23:00:44.490Z,99903.99
2019-05-21T23:03:12.519Z,99900.43
2019-05-21T23:05:40.948Z,99880.49
2019-05-21T23:08:09.751Z,99905.21
2019-05-21T23:10:38.087Z,99899.09
2019-05-21T23:13:05.878Z,99900.38
2019-05-21T23:15:34.107Z,99898.03
2019-05-21T23:18:20.919Z,99896.58
2019-05-21T23:20:58.642Z,99903.76
2019-05-21T23:23:28.830Z,99903.81
2019-05-21T23:25:58.225Z,99901.44
2019-05-21T23:28:27.713Z,99904.50
2019-05-21T23:30:56.228Z,99906.05
2019-05-21T23:33:25.168Z,99904.92
2019-05-21T23:35:53.564Z,99907.70
2019-05-21T23:38:21.313Z,99903.81
2019-05-21T23:40:50.807Z,99910.20
2019-05-21T23:43:19.361Z,99904.88
2019-05-21T23:45:47.406Z,99903.38
2019-05-21T23:48:15.649Z,99901.03
2019-05-21T23:50:44.854Z,99907.28
2019-05-21T23:53:12.741Z,99910.67
2019-05-21T23:55:41.136Z,99908.16
2019-05-21T23:58:09.752Z,99909.13
